Time;durP1;ratioP1;P1;durP2;ratioP2;P2;SDS_P1;SDS_P2;PMS_P1;PMS_P2;Temp;Humidity;BMP_temperature;BMP_pressure;BME280_temperature;BME280_humidity;BME280_pressure;Samples;Min_cycle;Max_cycle;Signal;HPM_P1;HPM_P2
2022/05/19 00:01:04;;;;;;;8.47;6.97;;;15.00;99.90;;;;;;5113843;28;20702;-72
2022/05/19 00:03:33;;;;;;;7.37;6.40;;;15.00;99.90;;;;;;5113965;28;20701;-72
2022/05/19 00:06:00;;;;;;;7.97;6.30;;;14.90;99.90;;;;;;5113913;28;20286;-72
2022/05/19 00:08:28;;;;;;;8.43;6.43;;;14.90;99.90;;;;;;5113883;28;20204;-72
2022/05/19 00:10:56;;;;;;;7.80;7.00;;;14.90;99.90;;;;;;5113972;28;20268;-75
2022/05/19 00:13:23;;;;;;;7.47;6.77;;;14.70;99.90;;;;;;5113786;28;20714;-72
2022/05/19 00:15:49;;;;;;;8.37;6.47;;;14.70;99.90;;;;;;5113738;28;20643;-72
2022/05/19 00:18:16;;;;;;;9.53;6.67;;;14.70;99.90;;;;;;5114302;28;20195;-72
2022/05/19 00:20:44;;;;;;;9.00;6.33;;;14.60;99.90;;;;;;5113970;28;20650;-74
2022/05/19 00:23:11;;;;;;;9.87;6.97;;;14.60;99.90;;;;;;5114029;28;20249;-74
2022/05/19 00:25:37;;;;;;;7.43;6.67;;;14.60;99.90;;;;;;5113546;28;20211;-72
2022/05/19 00:28:05;;;;;;;8.37;6.70;;;14.60;99.90;;;;;;5113808;28;20287;-72
2022/05/19 00:30:32;;;;;;;8.30;6.93;;;14.50;99.90;;;;;;5113492;28;20720;-72
2022/05/19 00:32:59;;;;;;;12.37;7.00;;;14.40;99.90;;;;;;5113476;28;20568;-72
2022/05/19 00:35:25;;;;;;;7.97;7.23;;;14.30;99.90;;;;;;5113390;28;20273;-72
2022/05/19 00:37:53;;;;;;;8.10;7.10;;;14.30;99.90;;;;;;5113639;28;20207;-72
2022/05/19 00:40:23;;;;;;;8.23;7.43;;;14.30;99.90;;;;;;5113413;28;20229;-74
2022/05/19 00:42:50;;;;;;;7.97;7.27;;;14.30;99.90;;;;;;5113360;28;20199;-72
2022/05/19 00:45:20;;;;;;;8.03;7.13;;;14.30;99.90;;;;;;5113513;28;20567;-74
2022/05/19 00:47:51;;;;;;;10.70;6.80;;;14.20;99.90;;;;;;5113331;28;20249;-74
2022/05/19 00:50:23;;;;;;;7.70;7.00;;;14.20;99.90;;;;;;5113558;28;20257;-74
2022/05/19 00:52:52;;;;;;;8.43;7.30;;;14.10;99.90;;;;;;5113399;28;20223;-74
2022/05/19 00:55:25;;;;;;;8.13;6.77;;;14.10;99.90;;;;;;5113306;28;20226;-74
2022/05/19 00:58:01;;;;;;;8.73;6.90;;;14.10;99.90;;;;;;5113121;28;20217;-74
2022/05/19 01:00:29;;;;;;;12.27;7.10;;;14.10;99.90;;;;;;5112934;28;20195;-74
2022/05/19 01:02:58;;;;;;;8.23;7.37;;;14.10;99.90;;;;;;5113321;28;20195;-72
2022/05/19 01:05:32;;;;;;;8.23;7.10;;;14.00;99.90;;;;;;5113297;28;20233;-72
2022/05/19 01:08:05;;;;;;;8.10;6.77;;;14.00;99.90;;;;;;5113291;28;20191;-74
2022/05/19 01:10:34;;;;;;;8.10;7.30;;;13.90;99.90;;;;;;5113046;28;20563;-75
2022/05/19 01:13:01;;;;;;;8.07;7.00;;;13.90;99.90;;;;;;5112950;28;20240;-74
2022/05/19 01:15:29;;;;;;;8.80;7.00;;;13.90;99.90;;;;;;5113287;28;20265;-74
2022/05/19 01:17:56;;;;;;;10.33;7.00;;;13.90;99.90;;;;;;5113306;28;20203;-75
2022/05/19 01:20:25;;;;;;;8.03;6.53;;;13.80;99.90;;;;;;5113188;28;20200;-74
2022/05/19 01:23:01;;;;;;;7.87;7.07;;;13.80;99.90;;;;;;5113080;28;20212;-74
2022/05/19 01:25:39;;;;;;;8.07;7.00;;;13.70;99.90;;;;;;5112927;28;20256;-74
2022/05/19 01:28:08;;;;;;;8.63;6.97;;;13.60;99.90;;;;;;5113219;28;20195;-74
2022/05/19 01:30:34;;;;;;;8.07;7.27;;;13.60;99.90;;;;;;5113030;28;20191;-74
2022/05/19 01:33:01;;;;;;;8.07;7.03;;;13.60;99.90;;;;;;5112925;28;20273;-74
2022/05/19 01:35:33;;;;;;;7.97;7.20;;;13.60;99.90;;;;;;5112944;28;20208;-74
2022/05/19 01:38:01;;;;;;;8.20;7.20;;;13.60;99.90;;;;;;5114321;28;20248;-73
2022/05/19 01:40:48;;;;;;;7.87;7.07;;;13.60;99.90;;;;;;5119834;28;20202;-73
2022/05/19 01:43:26;;;;;;;9.27;8.33;;;13.50;99.90;;;;;;5123424;28;20203;-73
2022/05/19 01:46:06;;;;;;;8.50;7.70;;;13.40;99.90;;;;;;5117072;28;20195;-74
2022/05/19 01:48:37;;;;;;;9.43;7.47;;;13.40;99.90;;;;;;5117114;28;20233;-74
2022/05/19 01:51:09;;;;;;;8.40;7.60;;;13.30;99.90;;;;;;5117267;28;20229;-73
2022/05/19 01:53:42;;;;;;;9.27;7.73;;;13.30;99.90;;;;;;5116785;28;20824;-74
2022/05/19 01:56:15;;;;;;;8.27;7.43;;;13.20;99.90;;;;;;5116615;28;20199;-74
2022/05/19 01:58:49;;;;;;;8.47;7.63;;;13.20;99.90;;;;;;5116417;28;20192;-73
2022/05/19 02:01:20;;;;;;;8.50;7.60;;;13.10;99.90;;;;;;5116481;28;20285;-73
2022/05/19 02:03:54;;;;;;;9.13;7.73;;;13.10;99.90;;;;;;5116560;28;20200;-73
2022/05/19 02:06:27;;;;;;;8.43;7.63;;;12.90;99.90;;;;;;5116362;28;20222;-73
2022/05/19 02:08:57;;;;;;;8.97;7.63;;;12.90;99.90;;;;;;5116292;28;20196;-73
2022/05/19 02:11:29;;;;;;;7.90;7.10;;;12.90;99.90;;;;;;5116060;28;20648;-73
2022/05/19 02:14:01;;;;;;;8.20;7.50;;;12.90;99.90;;;;;;5116230;28;20204;-73
2022/05/19 02:16:30;;;;;;;8.73;7.27;;;12.80;99.90;;;;;;5116272;28;20192;-73
2022/05/19 02:18:58;;;;;;;7.80;6.97;;;12.80;99.90;;;;;;5116122;28;20248;-74
2022/05/19 02:21:25;;;;;;;10.83;7.10;;;12.80;99.90;;;;;;5116090;28;20200;-73
2022/05/19 02:23:53;;;;;;;7.93;6.73;;;12.70;99.90;;;;;;5115821;28;20203;-73
2022/05/19 02:26:20;;;;;;;9.30;6.83;;;12.60;99.90;;;;;;5116045;28;20231;-73
2022/05/19 02:28:51;;;;;;;7.60;6.90;;;12.60;99.90;;;;;;5116031;28;20196;-74
2022/05/19 02:31:19;;;;;;;7.70;6.70;;;12.60;99.90;;;;;;5115963;28;20245;-73
2022/05/19 02:33:46;;;;;;;8.00;7.20;;;12.50;99.90;;;;;;5115704;28;20195;-73
2022/05/19 02:36:13;;;;;;;8.00;7.30;;;12.50;99.90;;;;;;5115656;28;20230;-74
2022/05/19 02:38:40;;;;;;;7.97;7.17;;;12.30;99.90;;;;;;5115971;28;20199;-74
2022/05/19 02:41:07;;;;;;;8.77;7.53;;;12.30;99.90;;;;;;5115419;28;20658;-74
2022/05/19 02:43:33;;;;;;;7.90;7.10;;;12.30;99.90;;;;;;5115720;28;20199;-74
2022/05/19 02:46:00;;;;;;;8.30;7.00;;;12.40;99.90;;;;;;5115669;28;20191;-73
2022/05/19 02:48:29;;;;;;;7.57;6.77;;;12.30;99.90;;;;;;5116035;28;20248;-73
2022/05/19 02:50:56;;;;;;;8.63;7.10;;;12.30;99.90;;;;;;5115187;28;20192;-73
2022/05/19 02:53:22;;;;;;;8.20;6.20;;;12.30;99.90;;;;;;5115249;28;20218;-74
2022/05/19 02:55:49;;;;;;;8.70;6.67;;;12.30;99.90;;;;;;5115573;28;20200;-73
2022/05/19 02:58:15;;;;;;;7.30;6.60;;;12.30;99.90;;;;;;5115446;28;20195;-73
2022/05/19 03:00:45;;;;;;;8.20;6.70;;;12.20;99.90;;;;;;5115136;28;20269;-74
2022/05/19 03:03:12;;;;;;;9.37;6.47;;;12.20;99.90;;;;;;5115220;28;20204;-73
2022/05/19 03:05:41;;;;;;;7.80;6.30;;;12.20;99.90;;;;;;5115401;28;20203;-73
2022/05/19 03:08:09;;;;;;;8.37;6.73;;;12.10;99.90;;;;;;5115400;28;20253;-74
2022/05/19 03:10:38;;;;;;;8.50;5.97;;;12.10;99.90;;;;;;5115365;28;20201;-74
2022/05/19 03:13:06;;;;;;;8.57;6.10;;;12.20;99.90;;;;;;5114982;28;20223;-73
2022/05/19 03:15:33;;;;;;;6.70;6.10;;;12.20;99.90;;;;;;5115015;28;20199;-74
2022/05/19 03:18:00;;;;;;;6.13;5.53;;;12.20;99.90;;;;;;5114976;28;20245;-74
2022/05/19 03:20:27;;;;;;;8.33;5.90;;;12.20;99.90;;;;;;5114855;28;20603;-74
2022/05/19 03:22:55;;;;;;;6.40;5.50;;;12.20;99.90;;;;;;5115077;28;20245;-74
2022/05/19 03:25:21;;;;;;;5.77;5.27;;;12.20;99.90;;;;;;5114990;28;20240;-74
2022/05/19 03:27:48;;;;;;;6.73;5.50;;;12.30;99.90;;;;;;5114912;28;20195;-73
2022/05/19 03:30:16;;;;;;;6.23;5.53;;;12.20;99.90;;;;;;5114849;28;20203;-73
2022/05/19 03:32:43;;;;;;;5.93;5.27;;;12.20;99.90;;;;;;5114628;28;20219;-73
2022/05/19 03:35:11;;;;;;;8.37;5.20;;;12.30;99.90;;;;;;5115033;28;20191;-73
2022/05/19 03:37:39;;;;;;;6.80;5.63;;;12.30;99.90;;;;;;5115069;28;20196;-75
2022/05/19 03:40:08;;;;;;;6.93;5.60;;;12.30;99.90;;;;;;5114608;28;20199;-74
2022/05/19 03:42:35;;;;;;;5.80;5.20;;;12.30;99.90;;;;;;5114517;28;20647;-72
2022/05/19 03:45:03;;;;;;;5.97;5.40;;;12.30;99.90;;;;;;5114545;28;20261;-73
2022/05/19 03:47:29;;;;;;;5.87;5.27;;;12.30;99.90;;;;;;5114587;28;20195;-74
2022/05/19 03:49:56;;;;;;;7.60;5.63;;;12.30;99.90;;;;;;5114395;28;20295;-74
2022/05/19 03:52:23;;;;;;;7.30;5.67;;;12.30;99.90;;;;;;5114185;28;20265;-74
2022/05/19 03:54:50;;;;;;;6.30;5.40;;;12.30;99.90;;;;;;5114572;28;20320;-78
2022/05/19 03:57:21;;;;;;;6.93;5.40;;;12.30;99.90;;;;;;5114595;28;20226;-77
2022/05/19 03:59:48;;;;;;;5.60;5.00;;;12.40;99.90;;;;;;5115233;28;20187;-81
2022/05/19 04:02:15;;;;;;;5.27;4.77;;;12.40;99.90;;;;;;5115376;28;20237;-80
2022/05/19 04:04:42;;;;;;;5.53;4.93;;;12.50;99.90;;;;;;5114617;28;20191;-79
2022/05/19 04:07:08;;;;;;;6.30;4.40;;;12.60;99.90;;;;;;5114283;28;20663;-79
2022/05/19 04:09:35;;;;;;;9.97;5.20;;;12.60;99.90;;;;;;5114055;28;20634;-77
2022/05/19 04:12:01;;;;;;;6.80;5.00;;;12.70;99.90;;;;;;5113763;28;20713;-78
2022/05/19 04:14:29;;;;;;;6.77;5.03;;;12.80;99.90;;;;;;5114119;28;20195;-78
2022/05/19 04:16:56;;;;;;;7.47;5.43;;;12.80;99.90;;;;;;5113992;28;20196;-78
2022/05/19 04:19:23;;;;;;;6.33;4.70;;;12.90;99.90;;;;;;5114076;28;20196;-78
2022/05/19 04:21:49;;;;;;;5.33;4.20;;;13.00;99.90;;;;;;5113923;28;20195;-78
2022/05/19 04:24:16;;;;;;;4.40;4.00;;;13.10;99.90;;;;;;5113996;28;20253;-77
2022/05/19 04:26:43;;;;;;;7.67;5.13;;;13.30;99.90;;;;;;5113574;28;20728;-77
2022/05/19 04:29:09;;;;;;;8.30;5.60;;;13.40;99.90;;;;;;5113752;28;20601;-77
2022/05/19 04:31:38;;;;;;;10.33;5.73;;;13.50;99.90;;;;;;5113642;28;20524;-77
2022/05/19 04:34:06;;;;;;;14.47;6.90;;;13.50;99.90;;;;;;5113774;28;20280;-79
2022/05/19 04:36:33;;;;;;;10.73;6.07;;;13.60;99.90;;;;;;5114044;28;20195;-75
2022/05/19 04:38:59;;;;;;;11.03;5.77;;;13.70;99.90;;;;;;5113480;28;20576;-74
2022/05/19 04:41:26;;;;;;;10.10;6.13;;;13.70;99.90;;;;;;5113464;28;20199;-72
2022/05/19 04:43:53;;;;;;;8.70;5.43;;;13.90;99.90;;;;;;5113310;28;20203;-71
2022/05/19 04:46:20;;;;;;;13.13;6.23;;;14.00;99.90;;;;;;5112810;28;20199;-72
2022/05/19 04:48:48;;;;;;;13.70;6.73;;;14.10;99.90;;;;;;5113572;28;20200;-72
2022/05/19 04:51:14;;;;;;;12.57;6.37;;;14.10;99.90;;;;;;5113449;28;20248;-72
2022/05/19 04:53:41;;;;;;;8.77;6.10;;;14.30;99.90;;;;;;5113207;28;20223;-72
2022/05/19 04:56:08;;;;;;;8.87;5.40;;;14.30;99.90;;;;;;5115241;28;20200;-72
2022/05/19 04:58:34;;;;;;;8.20;5.20;;;14.40;99.90;;;;;;5118018;28;20195;-72
2022/05/19 05:01:01;;;;;;;8.10;5.37;;;14.50;99.90;;;;;;5117054;28;20268;-72
2022/05/19 05:03:28;;;;;;;7.10;4.40;;;14.50;99.90;;;;;;5120453;28;20204;-71
2022/05/19 05:05:56;;;;;;;8.57;4.27;;;14.70;99.90;;;;;;5124639;28;20200;-73
2022/05/19 05:08:22;;;;;;;7.20;4.30;;;14.70;99.90;;;;;;5131524;28;20196;-71
2022/05/19 05:10:49;;;;;;;5.63;4.17;;;14.90;99.90;;;;;;5131861;28;20200;-71
2022/05/19 05:13:17;;;;;;;9.17;4.30;;;15.00;99.90;;;;;;5121298;28;20223;-72
2022/05/19 05:15:44;;;;;;;7.97;3.90;;;15.10;99.90;;;;;;5117384;28;20223;-71
2022/05/19 05:18:11;;;;;;;4.87;4.20;;;15.20;99.90;;;;;;5117351;28;20605;-72
2022/05/19 05:20:41;;;;;;;7.20;3.70;;;15.30;99.90;;;;;;5117090;28;20196;-72
2022/05/19 05:23:09;;;;;;;5.10;3.77;;;15.30;99.90;;;;;;5117335;28;20253;-72
2022/05/19 05:25:36;;;;;;;4.47;3.90;;;15.40;99.90;;;;;;5117095;28;20241;-71
2022/05/19 05:28:03;;;;;;;5.17;3.43;;;15.50;99.90;;;;;;5116996;28;20204;-72
2022/05/19 05:30:30;;;;;;;3.40;3.10;;;15.60;99.90;;;;;;5116964;28;20202;-72
2022/05/19 05:33:03;;;;;;;8.33;3.13;;;15.70;99.90;;;;;;5116790;28;20268;-72
2022/05/19 05:35:30;;;;;;;5.57;3.30;;;15.90;99.90;;;;;;5116698;28;20661;-71
2022/05/19 05:37:57;;;;;;;7.45;3.30;;;16.00;99.90;;;;;;5116648;28;20199;-72
2022/05/19 05:40:26;;;;;;;5.32;3.33;;;16.10;99.90;;;;;;5116656;28;20248;-72
2022/05/19 05:42:53;;;;;;;5.32;3.60;;;16.20;99.90;;;;;;5116835;28;20210;-72
2022/05/19 05:45:20;;;;;;;4.80;3.40;;;16.30;99.90;;;;;;5116431;28;20195;-72
2022/05/19 05:47:46;;;;;;;5.97;3.83;;;16.30;99.90;;;;;;5116511;28;20191;-72
2022/05/19 05:50:14;;;;;;;10.93;3.70;;;16.30;99.90;;;;;;5116569;28;20199;-72
2022/05/19 05:52:41;;;;;;;3.75;3.03;;;16.50;99.90;;;;;;5116347;28;20682;-72
2022/05/19 05:55:08;;;;;;;6.75;3.53;;;16.60;99.90;;;;;;5116592;28;20605;-73
2022/05/19 05:57:36;;;;;;;3.85;3.28;;;16.60;99.90;;;;;;5116471;28;20264;-72
2022/05/19 06:00:05;;;;;;;3.70;3.30;;;16.70;99.90;;;;;;5116353;28;20275;-72
2022/05/19 06:02:32;;;;;;;6.68;3.13;;;16.70;99.90;;;;;;5115955;28;20231;-73
2022/05/19 06:04:59;;;;;;;3.35;3.03;;;16.90;99.90;;;;;;5116706;28;20206;-71
2022/05/19 06:07:29;;;;;;;3.97;3.10;;;16.90;99.90;;;;;;5116776;28;20204;-73
2022/05/19 06:09:56;;;;;;;6.68;3.00;;;17.00;99.90;;;;;;5116267;28;20694;-73
2022/05/19 06:12:23;;;;;;;7.18;3.25;;;17.00;99.90;;;;;;5115922;28;20282;-72
2022/05/19 06:14:53;;;;;;;5.53;3.30;;;17.10;99.90;;;;;;5116375;28;20223;-73
2022/05/19 06:17:20;;;;;;;5.95;3.42;;;17.10;99.90;;;;;;5116297;28;20202;-73
2022/05/19 06:19:46;;;;;;;4.55;3.35;;;17.30;99.90;;;;;;5116291;28;20195;-74
2022/05/19 06:22:13;;;;;;;5.22;2.75;;;17.30;99.90;;;;;;5116113;28;20604;-73
2022/05/19 06:24:40;;;;;;;3.67;2.97;;;17.30;99.90;;;;;;5115301;28;20210;-73
2022/05/19 06:27:07;;;;;;;3.70;3.00;;;17.20;99.90;;;;;;5115923;28;20199;-72
2022/05/19 06:29:33;;;;;;;6.25;3.65;;;17.20;99.90;;;;;;5115706;28;20664;-73
2022/05/19 06:32:01;;;;;;;3.75;2.83;;;17.20;99.90;;;;;;5115823;28;20204;-72
2022/05/19 06:34:28;;;;;;;5.45;3.08;;;17.30;99.90;;;;;;5115655;28;20564;-73
2022/05/19 06:36:56;;;;;;;3.80;3.00;;;17.40;99.90;;;;;;5115480;28;20581;-72
2022/05/19 06:39:22;;;;;;;6.78;3.00;;;17.40;99.90;;;;;;5115547;28;20283;-73
2022/05/19 06:42:04;;;;;;;6.70;3.00;;;17.50;99.90;;;;;;5115426;28;20252;-72
2022/05/19 06:44:33;;;;;;;4.63;3.03;;;17.50;99.90;;;;;;5115417;28;20206;-72
2022/05/19 06:47:02;;;;;;;8.38;3.25;;;17.50;99.90;;;;;;5115457;28;20207;-73
2022/05/19 06:49:30;;;;;;;5.20;3.05;;;17.60;99.90;;;;;;5115506;28;20302;-73
2022/05/19 06:51:56;;;;;;;7.03;3.65;;;17.50;99.40;;;;;;5115423;28;20283;-73
2022/05/19 06:54:24;;;;;;;7.03;3.20;;;17.50;99.20;;;;;;5115571;28;20219;-73
2022/05/19 06:56:51;;;;;;;6.32;3.50;;;17.50;99.60;;;;;;5115293;28;20219;-73
2022/05/19 06:59:17;;;;;;;3.72;2.78;;;17.60;99.90;;;;;;5115452;28;20199;-73
2022/05/19 07:01:47;;;;;;;4.65;3.22;;;17.70;99.60;;;;;;5115161;28;20253;-73
2022/05/19 07:04:15;;;;;;;6.28;2.92;;;17.70;99.30;;;;;;5115205;28;20297;-73
2022/05/19 07:06:42;;;;;;;4.00;3.13;;;17.80;99.90;;;;;;5115229;28;20200;-73
2022/05/19 07:09:09;;;;;;;4.72;3.13;;;18.00;99.80;;;;;;5114958;28;20260;-73
2022/05/19 07:11:36;;;;;;;4.70;3.22;;;18.10;98.90;;;;;;5114910;28;20204;-73
2022/05/19 07:14:05;;;;;;;5.65;3.10;;;18.10;98.60;;;;;;5114906;28;20222;-72
2022/05/19 07:16:32;;;;;;;7.30;3.17;;;18.10;99.00;;;;;;5114913;28;20244;-73
2022/05/19 07:21:42;;;;;;;4.43;2.70;;;18.20;97.90;;;;;;5113947;28;20651;-73
2022/05/19 07:24:10;;;;;;;4.50;2.90;;;18.30;98.20;;;;;;5114657;28;20199;-73
2022/05/19 07:26:37;;;;;;;4.28;3.28;;;18.50;98.00;;;;;;5114534;28;20282;-72
2022/05/19 07:29:03;;;;;;;7.78;3.00;;;18.50;97.90;;;;;;5114703;28;20567;-73
2022/05/19 07:31:31;;;;;;;4.85;3.33;;;18.60;96.70;;;;;;5114570;28;20725;-73
2022/05/19 07:33:57;;;;;;;5.40;2.97;;;18.60;96.40;;;;;;5114473;28;20686;-73
2022/05/19 07:36:24;;;;;;;9.07;3.30;;;18.70;96.70;;;;;;5113953;28;20634;-73
2022/05/19 07:38:53;;;;;;;4.10;2.80;;;18.80;96.60;;;;;;5114599;28;20245;-73
2022/05/19 07:41:19;;;;;;;6.68;3.22;;;19.00;96.00;;;;;;5114426;28;20676;-73
2022/05/19 07:43:46;;;;;;;7.25;3.00;;;19.20;95.50;;;;;;5114271;28;20204;-73
2022/05/19 07:46:13;;;;;;;6.88;2.97;;;19.30;94.20;;;;;;5114257;28;20287;-72
2022/05/19 07:48:39;;;;;;;6.55;2.92;;;19.30;94.10;;;;;;5114316;28;20195;-72
2022/05/19 07:51:06;;;;;;;6.22;3.20;;;19.50;94.40;;;;;;5114238;28;20195;-73
2022/05/19 07:53:34;;;;;;;3.33;2.72;;;19.70;94.10;;;;;;5114657;28;20215;-71
2022/05/19 07:56:02;;;;;;;4.30;3.20;;;19.90;93.80;;;;;;5114262;28;20222;-72
2022/05/19 07:58:30;;;;;;;5.45;3.30;;;19.90;92.30;;;;;;5114562;28;20204;-73
2022/05/19 08:00:57;;;;;;;3.60;3.00;;;20.10;92.80;;;;;;5114829;28;20310;-72
2022/05/19 08:03:24;;;;;;;9.00;3.35;;;20.30;91.00;;;;;;5115958;28;20244;-72
2022/05/19 08:05:52;;;;;;;4.10;2.90;;;20.50;90.60;;;;;;5114262;28;20282;-72
2022/05/19 08:08:18;;;;;;;3.97;2.97;;;20.70;87.90;;;;;;5114091;28;20199;-72
2022/05/19 08:10:45;;;;;;;4.88;2.90;;;20.50;87.90;;;;;;5114147;28;20202;-72
2022/05/19 08:15:57;;;;;;;5.78;3.05;;;20.50;85.90;;;;;;5114073;28;20194;-73
2022/05/19 08:18:26;;;;;;;4.90;3.00;;;20.60;87.60;;;;;;5114102;28;20196;-72
2022/05/19 08:20:55;;;;;;;4.53;3.13;;;21.00;86.50;;;;;;5114564;28;20256;-72
2022/05/19 08:23:24;;;;;;;3.42;3.00;;;21.20;83.70;;;;;;5113979;28;20200;-71
2022/05/19 08:25:51;;;;;;;4.47;2.88;;;21.30;82.40;;;;;;5114685;28;20199;-72
2022/05/19 08:28:20;;;;;;;3.78;2.80;;;21.40;80.30;;;;;;5120243;28;20221;-72
2022/05/19 08:30:51;;;;;;;3.83;2.90;;;21.40;81.50;;;;;;5113352;28;20659;-73
2022/05/19 08:33:20;;;;;;;6.22;3.22;;;21.70;80.90;;;;;;5113304;28;20659;-73
2022/05/19 08:35:47;;;;;;;4.82;3.20;;;21.90;78.10;;;;;;5113483;28;20192;-72
2022/05/19 08:38:13;;;;;;;4.38;3.03;;;21.90;74.80;;;;;;5113182;28;20235;-72
2022/05/19 08:40:44;;;;;;;8.73;2.60;;;21.70;75.10;;;;;;5113219;28;20199;-73
2022/05/19 08:43:13;;;;;;;4.00;2.85;;;22.00;75.00;;;;;;5113479;28;20286;-73
2022/05/19 08:45:43;;;;;;;3.90;2.60;;;22.30;74.30;;;;;;5113384;28;20249;-73
2022/05/19 08:48:14;;;;;;;3.67;2.70;;;22.40;71.40;;;;;;5113073;28;20257;-73
2022/05/19 08:50:46;;;;;;;6.15;2.60;;;22.90;71.40;;;;;;5113252;28;20202;-73
2022/05/19 08:53:13;;;;;;;6.45;3.08;;;23.10;71.90;;;;;;5113048;28;20204;-74
2022/05/19 08:55:46;;;;;;;4.18;3.13;;;23.40;70.80;;;;;;5113240;28;20284;-73
2022/05/19 08:58:37;;;;;;;4.97;2.58;;;23.60;70.10;;;;;;5113250;28;20219;-74
2022/05/19 09:01:13;;;;;;;6.32;2.92;;;23.80;69.60;;;;;;5112911;28;20277;-73
2022/05/19 09:03:51;;;;;;;4.05;2.95;;;23.90;67.50;;;;;;5113078;28;20211;-74
2022/05/19 09:09:39;;;;;;;4.32;2.70;;;24.50;65.50;;;;;;5111952;28;20184;-73
2022/05/19 09:12:10;;;;;;;4.25;2.60;;;24.70;62.50;;;;;;5113040;28;20195;-74
2022/05/19 09:14:37;;;;;;;6.50;2.85;;;24.90;61.50;;;;;;5112828;28;20269;-73
2022/05/19 09:17:09;;;;;;;6.18;2.95;;;25.20;60.50;;;;;;5112976;28;20750;-74
2022/05/19 09:19:39;;;;;;;6.57;2.97;;;25.20;58.40;;;;;;5113009;28;20237;-73
2022/05/19 09:22:08;;;;;;;4.65;2.85;;;25.30;57.30;;;;;;5112992;28;20195;-72
2022/05/19 09:24:35;;;;;;;3.88;2.72;;;25.60;56.50;;;;;;5117360;28;20248;-73
2022/05/19 09:27:03;;;;;;;7.53;3.25;;;25.90;55.70;;;;;;5114743;28;20202;-73
2022/05/19 09:29:33;;;;;;;4.78;3.00;;;26.30;55.40;;;;;;5112757;28;20562;-74
2022/05/19 09:32:12;;;;;;;3.58;2.90;;;25.80;54.00;;;;;;5112678;28;20200;-73
2022/05/19 09:34:38;;;;;;;6.90;3.08;;;25.90;53.70;;;;;;5112699;28;20310;-73
2022/05/19 09:37:11;;;;;;;4.07;3.00;;;26.40;53.70;;;;;;5112715;28;20284;-74
2022/05/19 09:39:47;;;;;;;4.00;3.10;;;26.90;52.60;;;;;;5112865;28;20253;-73
2022/05/19 09:42:17;;;;;;;5.18;2.88;;;26.50;51.20;;;;;;5112746;28;20194;-73
2022/05/19 09:44:50;;;;;;;5.00;2.85;;;27.00;51.20;;;;;;5112758;28;20229;-74
2022/05/19 09:47:21;;;;;;;5.30;2.70;;;27.40;49.70;;;;;;5112639;28;20210;-73
2022/05/19 09:49:55;;;;;;;4.65;3.17;;;26.90;48.30;;;;;;5112850;28;20180;-74
2022/05/19 09:52:26;;;;;;;3.13;2.78;;;26.30;48.30;;;;;;5112557;28;20647;-73
2022/05/19 09:54:56;;;;;;;4.70;2.80;;;27.30;49.00;;;;;;5112331;28;20586;-73
2022/05/19 09:57:27;;;;;;;4.00;2.97;;;27.70;47.70;;;;;;5112735;28;20206;-73
2022/05/19 09:59:58;;;;;;;3.85;2.60;;;27.30;46.50;;;;;;5114607;28;20192;-74
2022/05/19 10:02:33;;;;;;;5.75;3.08;;;26.60;47.30;;;;;;5115989;28;20280;-73
2022/05/19 10:05:25;;;;;;;2.95;2.70;;;27.20;47.70;;;;;;5116080;28;20681;-74
2022/05/19 10:07:57;;;;;;;5.45;2.75;;;27.70;46.30;;;;;;5116067;28;20582;-73
2022/05/19 10:10:26;;;;;;;4.43;2.80;;;27.70;45.70;;;;;;5116028;28;20283;-74
2022/05/19 10:12:57;;;;;;;5.20;2.97;;;28.30;45.10;;;;;;5119278;28;20229;-72
2022/05/19 10:15:30;;;;;;;4.10;3.03;;;28.70;45.10;;;;;;5118314;28;20773;-73
2022/05/19 10:18:06;;;;;;;4.78;2.60;;;29.30;43.90;;;;;;5116171;28;20256;-74
2022/05/19 10:20:45;;;;;;;4.53;2.70;;;29.30;41.90;;;;;;5116020;28;20199;-73
2022/05/19 10:23:26;;;;;;;5.45;2.97;;;29.00;43.40;;;;;;5116180;28;20199;-74
2022/05/19 10:26:20;;;;;;;7.15;2.95;;;29.90;42.20;;;;;;5116018;28;20203;-73
2022/05/19 10:31:54;;;;;;;5.75;2.95;;;29.60;40.30;;;;;;5115811;28;20215;-74
2022/05/19 10:34:41;;;;;;;6.45;2.97;;;30.00;40.10;;;;;;5115786;28;20578;-74
2022/05/19 10:37:20;;;;;;;7.18;2.92;;;30.80;39.30;;;;;;5115674;28;20557;-73
2022/05/19 10:40:22;;;;;;;4.07;2.67;;;30.50;38.10;;;;;;5115802;28;20237;-74
2022/05/19 10:42:59;;;;;;;8.80;3.20;;;31.00;37.30;;;;;;5108523;28;20273;-74
2022/05/19 10:45:28;;;;;;;5.97;2.72;;;31.10;36.60;;;;;;5115524;28;20244;-74
2022/05/19 10:48:15;;;;;;;3.33;2.53;;;31.20;35.50;;;;;;5115212;28;20650;-74
2022/05/19 10:50:48;;;;;;;4.90;2.95;;;30.50;36.40;;;;;;5112287;28;20632;-75
2022/05/19 10:53:36;;;;;;;6.25;2.85;;;31.00;36.00;;;;;;5115221;28;20681;-74
2022/05/19 10:56:18;;;;;;;3.60;2.83;;;31.10;36.10;;;;;;5115199;28;20249;-75
2022/05/19 10:59:20;;;;;;;3.28;2.92;;;32.90;35.30;;;;;;5115276;28;20199;-74
2022/05/19 11:01:55;;;;;;;5.15;2.60;;;33.70;32.70;;;;;;5114828;28;20237;-74
2022/05/19 11:04:44;;;;;;;4.15;3.03;;;34.60;30.40;;;;;;5114978;28;20596;-74
2022/05/19 11:07:31;;;;;;;7.68;2.78;;;34.40;29.20;;;;;;5115014;28;20195;-74
2022/05/19 11:10:09;;;;;;;5.78;2.47;;;33.70;30.40;;;;;;5114731;28;20199;-74
2022/05/19 11:12:43;;;;;;;3.70;2.63;;;34.00;28.70;;;;;;5115082;28;20604;-74
2022/05/19 11:15:21;;;;;;;4.50;2.67;;;34.40;28.80;;;;;;5114804;28;20219;-75
2022/05/19 11:17:57;;;;;;;4.32;2.65;;;35.90;27.50;;;;;;5115296;28;20195;-74
2022/05/19 11:20:28;;;;;;;6.07;2.70;;;36.40;26.80;;;;;;5115324;28;20243;-74
2022/05/19 11:23:03;;;;;;;5.90;2.88;;;36.20;25.90;;;;;;5115098;28;20195;-74
2022/05/19 11:28:29;;;;;;;4.80;2.20;;;36.10;25.10;;;;;;5116761;28;20214;-74
2022/05/19 11:31:00;;;;;;;4.22;2.42;;;36.00;23.80;;;;;;5123201;28;20658;-73
2022/05/19 11:33:31;;;;;;;5.28;2.35;;;35.70;23.90;;;;;;5119529;28;20249;-74
2022/05/19 11:36:01;;;;;;;2.67;2.30;;;35.60;23.70;;;;;;5115004;28;20195;-74
2022/05/19 11:38:32;;;;;;;3.63;2.20;;;35.30;22.10;;;;;;5115043;28;20252;-74
2022/05/19 11:41:05;;;;;;;4.30;2.47;;;35.00;22.70;;;;;;5114676;28;20199;-74
2022/05/19 11:43:37;;;;;;;2.40;2.20;;;36.20;22.00;;;;;;5114712;28;20229;-74
2022/05/19 11:46:07;;;;;;;6.65;2.38;;;36.20;21.80;;;;;;5114144;28;20222;-74
2022/05/19 11:57:21;;;;;;;2.58;2.38;;;37.10;20.70;;;;;;5114114;28;20194;-74
2022/05/19 11:59:50;;;;;;;2.92;2.55;;;37.50;20.50;;;;;;5114018;28;20202;-74
2022/05/19 12:02:26;;;;;;;3.85;2.33;;;39.30;20.20;;;;;;5113600;28;20223;-74
2022/05/19 12:04:58;;;;;;;4.15;2.30;;;39.40;19.20;;;;;;5113593;28;20218;-74
2022/05/19 12:07:38;;;;;;;3.35;2.65;;;37.00;19.80;;;;;;5113693;28;20202;-74
2022/05/19 12:10:06;;;;;;;4.43;2.60;;;37.10;20.30;;;;;;5113554;28;20191;-74
2022/05/19 12:12:40;;;;;;;3.95;2.60;;;38.70;20.00;;;;;;5113518;28;20232;-74
2022/05/19 12:15:21;;;;;;;4.90;2.70;;;38.30;19.20;;;;;;5113556;28;20248;-74
2022/05/19 12:17:56;;;;;;;3.05;2.28;;;36.30;19.40;;;;;;5113650;28;20244;-75
2022/05/19 12:20:36;;;;;;;5.22;2.30;;;35.80;20.40;;;;;;5113632;28;20305;-75
2022/05/19 12:23:16;;;;;;;5.65;2.50;;;37.40;19.30;;;;;;5113079;28;20203;-72
2022/05/19 12:25:44;;;;;;;3.78;2.40;;;37.40;19.40;;;;;;5113287;28;20229;-73
2022/05/19 12:28:33;;;;;;;3.08;2.60;;;37.40;19.50;;;;;;5113885;28;20195;-73
2022/05/19 12:33:56;;;;;;;4.90;2.65;;;36.30;19.90;;;;;;5113319;28;20845;-73
2022/05/19 12:36:32;;;;;;;3.15;2.45;;;37.20;19.20;;;;;;5116665;28;20187;-73
2022/05/19 12:39:28;;;;;;;2.83;2.53;;;36.00;19.80;;;;;;5096507;28;20198;-77
2022/05/19 12:41:56;;;;;;;3.45;2.50;;;36.50;19.70;;;;;;5125481;28;20199;-74
2022/05/19 12:44:32;;;;;;;3.00;2.63;;;37.20;19.50;;;;;;5115321;28;20194;-72
2022/05/19 12:47:04;;;;;;;4.55;2.53;;;35.90;20.60;;;;;;5113613;28;20203;-74
2022/05/19 12:49:31;;;;;;;6.65;3.05;;;36.70;20.30;;;;;;5113031;28;20205;-77
2022/05/19 12:52:00;;;;;;;3.22;2.53;;;37.00;20.20;;;;;;5113309;28;20225;-74
2022/05/19 12:54:29;;;;;;;4.63;2.65;;;37.50;19.50;;;;;;5112977;28;20705;-74
2022/05/19 12:57:20;;;;;;;4.88;2.83;;;38.30;19.30;;;;;;5113016;28;20195;-75
2022/05/19 12:59:53;;;;;;;5.03;2.85;;;38.90;18.70;;;;;;5113326;28;20248;-77
2022/05/19 13:02:32;;;;;;;3.42;2.70;;;39.50;18.50;;;;;;5112551;28;20230;-77
2022/05/19 13:05:04;;;;;;;8.00;3.13;;;39.10;18.60;;;;;;5113021;28;20309;-77
2022/05/19 13:07:36;;;;;;;5.97;3.03;;;39.10;18.50;;;;;;5095447;28;20203;-76
2022/05/19 13:10:09;;;;;;;5.55;2.83;;;37.20;19.00;;;;;;5113200;28;20256;-77
2022/05/19 13:12:47;;;;;;;3.10;2.60;;;36.50;20.00;;;;;;5113000;28;20199;-74
2022/05/19 13:15:25;;;;;;;3.38;2.80;;;35.80;21.00;;;;;;5110430;28;20203;-73
2022/05/19 13:17:53;;;;;;;7.38;3.55;;;37.40;20.00;;;;;;5116215;28;20195;-73
2022/05/19 13:20:23;;;;;;;3.67;2.88;;;36.90;20.50;;;;;;5112362;28;20197;-72
2022/05/19 13:22:53;;;;;;;3.83;3.20;;;36.30;21.20;;;;;;5112840;28;20244;-73
2022/05/19 13:25:21;;;;;;;5.13;3.10;;;35.40;21.90;;;;;;5112802;28;20219;-74
2022/05/19 13:30:40;;;;;;;5.97;3.20;;;35.30;22.20;;;;;;5118924;28;20727;-73